Time;durP1;ratioP1;P1;durP2;ratioP2;P2;SDS_P1;SDS_P2;PMS_P1;PMS_P2;Temp;Humidity;BMP_temperature;BMP_pressure;BME280_temperature;BME280_humidity;BME280_pressure;Samples;Min_cycle;Max_cycle;Signal;HPM_P1;HPM_P2
2022/03/03 00:00:26;;;;;;;17.13;9.90;;;;;;;-0.32;71.66;101220.53;5065178;28;20055;-60
2022/03/03 00:03:29;;;;;;;12.90;9.32;;;;;;;-0.15;71.51;101224.84;5054366;28;20473;-59
2022/03/03 00:06:34;;;;;;;14.50;9.13;;;;;;;-0.14;71.21;101224.00;5054408;28;20513;-59
2022/03/03 00:09:37;;;;;;;14.55;9.73;;;;;;;-0.25;71.58;101226.53;5054850;28;20064;-60
2022/03/03 00:12:40;;;;;;;14.23;9.68;;;;;;;-0.35;71.76;101225.66;5054518;28;20183;-59
2022/03/03 00:15:44;;;;;;;;;;;;;;;-0.45;72.51;101217.88;5053621;28;20090;-60
2022/03/03 00:18:46;;;;;;;12.77;8.60;;;;;;;-0.56;72.69;101228.13;5054488;28;20083;-60
2022/03/03 00:21:50;;;;;;;13.07;8.95;;;;;;;-0.49;72.56;101220.44;5034655;28;20130;-60
2022/03/03 00:24:53;;;;;;;12.45;9.07;;;;;;;-0.53;72.56;101213.56;5033536;28;20521;-59
2022/03/03 00:27:57;;;;;;;14.45;9.23;;;;;;;-0.53;72.83;101208.44;5034348;28;20048;-59
2022/03/03 00:31:00;;;;;;;14.35;9.57;;;;;;;-0.47;72.68;101210.19;5056647;28;20053;-59
2022/03/03 00:34:03;;;;;;;12.75;9.45;;;;;;;-0.55;72.31;101207.56;5033001;28;20411;-60
2022/03/03 00:37:07;;;;;;;13.27;9.25;;;;;;;-0.61;72.22;101212.66;5044152;28;20669;-59
2022/03/03 00:40:10;;;;;;;14.43;10.13;;;;;;;-0.49;71.77;101206.72;5033833;28;20064;-59
2022/03/03 00:43:14;;;;;;;16.00;9.85;;;;;;;-0.52;72.25;101199.88;5044324;28;20060;-59
2022/03/03 00:46:18;;;;;;;13.75;9.10;;;;;;;-0.64;72.65;101202.38;5032763;28;20410;-59
2022/03/03 00:49:21;;;;;;;12.88;9.32;;;;;;;-0.65;72.81;101202.38;5033224;28;20434;-59
2022/03/03 00:52:25;;;;;;;12.50;9.25;;;;;;;-0.60;72.91;101198.16;5032064;28;20040;-60
2022/03/03 00:55:28;;;;;;;15.00;8.88;;;;;;;-0.60;72.30;101203.28;5044479;28;20087;-59
2022/03/03 00:58:31;;;;;;;12.93;8.80;;;;;;;-0.67;71.82;101207.53;5033520;28;20084;-59
2022/03/03 01:01:35;;;;;;;10.80;8.60;;;;;;;-0.72;71.22;101201.50;5032572;28;20123;-59
2022/03/03 01:04:38;;;;;;;12.00;8.70;;;;;;;-0.71;72.06;101198.06;5033608;28;20084;-59
2022/03/03 01:07:42;;;;;;;13.10;8.90;;;;;;;-0.84;72.79;101189.44;5033629;28;20107;-60
2022/03/03 01:10:45;;;;;;;15.48;10.07;;;;;;;-0.76;72.59;101192.94;5044168;28;20060;-59
2022/03/03 01:13:48;;;;;;;13.75;10.18;;;;;;;-0.78;72.60;101188.63;5053401;28;20580;-59
2022/03/03 01:16:52;;;;;;;12.80;9.05;;;;;;;-0.86;73.01;101180.91;5053405;28;20052;-59
2022/03/03 01:19:55;;;;;;;16.02;11.57;;;;;;;-0.85;73.62;101186.91;5052576;28;20055;-59
2022/03/03 01:22:58;;;;;;;19.15;9.25;;;;;;;-0.92;72.50;101193.72;5051978;28;20039;-59
2022/03/03 01:26:02;;;;;;;;;;;;;;;-0.88;71.64;101190.28;5040035;28;20048;-59
2022/03/03 01:29:05;;;;;;;12.50;9.18;;;;;;;-0.92;72.17;101186.00;5052234;28;19958;-59
2022/03/03 01:32:09;;;;;;;13.20;9.30;;;;;;;-0.88;72.40;101182.59;5052223;28;20048;-59
2022/03/03 01:35:12;;;;;;;17.67;10.10;;;;;;;-0.94;72.12;101177.44;5052167;28;20055;-59
2022/03/03 01:38:16;;;;;;;13.18;9.82;;;;;;;-1.22;72.30;101182.38;5050352;28;20047;-59
2022/03/03 01:41:19;;;;;;;16.50;9.73;;;;;;;-1.14;72.21;101173.91;5032699;28;20072;-59
2022/03/03 01:44:22;;;;;;;15.73;9.98;;;;;;;-1.05;72.64;101179.94;5053712;28;20457;-59
2022/03/03 01:47:27;;;;;;;12.55;8.90;;;;;;;-1.05;72.88;101173.97;5030371;28;20114;-59
2022/03/03 01:50:30;;;;;;;14.32;9.30;;;;;;;-1.06;72.80;101161.94;5032760;28;20080;-59
2022/03/03 01:53:33;;;;;;;11.70;8.95;;;;;;;-1.04;71.87;101168.81;5032169;28;20152;-59
2022/03/03 01:56:37;;;;;;;;;;;;;;;-1.11;72.03;101161.09;5032633;28;20049;-59
2022/03/03 01:59:40;;;;;;;13.27;9.40;;;;;;;-1.18;72.99;101166.19;5031378;28;19923;-59
2022/03/03 02:02:45;;;;;;;13.18;9.20;;;;;;;-1.09;72.89;101161.94;5031371;28;20098;-59
2022/03/03 02:05:49;;;;;;;13.88;10.10;;;;;;;-1.24;73.48;101163.56;5031808;28;20092;-59
2022/03/03 02:08:52;;;;;;;16.95;8.98;;;;;;;-1.21;73.73;101163.59;5033747;28;20456;-59
2022/03/03 02:11:56;;;;;;;;;;;;;;;-1.31;73.66;101158.38;5052544;28;20102;-59
2022/03/03 02:14:59;;;;;;;12.05;8.90;;;;;;;-1.21;73.16;101153.34;5073929;28;19940;-59
2022/03/03 02:18:02;;;;;;;14.43;9.55;;;;;;;-1.22;72.81;101146.47;5049800;28;20214;-59
2022/03/03 02:21:06;;;;;;;15.10;9.65;;;;;;;-1.30;72.67;101148.13;5051596;28;20055;-59
2022/03/03 02:24:09;;;;;;;13.95;9.68;;;;;;;-1.29;73.02;101139.59;5051188;28;20094;-59
2022/03/03 02:27:12;;;;;;;;;;;;;;;-1.29;72.84;101131.88;5074472;28;20102;-59
2022/03/03 02:30:17;;;;;;;14.27;10.05;;;;;;;-1.31;72.56;101131.03;5050309;28;20017;-59
2022/03/03 02:33:20;;;;;;;14.95;9.82;;;;;;;-1.29;71.87;101124.19;5050498;28;20469;-60
2022/03/03 02:36:29;;;;;;;13.18;9.15;;;;;;;-1.39;72.77;101125.00;5049330;28;20063;-59
2022/03/03 02:39:32;;;;;;;14.95;10.40;;;;;;;-1.30;73.28;101122.47;5042188;28;20056;-59
2022/03/03 02:42:36;;;;;;;13.95;9.45;;;;;;;-1.36;73.38;101117.31;5042001;28;20073;-59
2022/03/03 02:45:39;;;;;;;12.95;9.38;;;;;;;-1.33;73.28;101121.63;5042449;28;20599;-59
2022/03/03 02:48:42;;;;;;;15.00;9.75;;;;;;;-1.45;73.04;101130.06;5031060;28;20109;-59
2022/03/03 02:51:45;;;;;;;13.80;9.82;;;;;;;-1.56;72.88;101129.13;5019754;28;20053;-59
2022/03/03 02:54:49;;;;;;;;;;;;;;;-1.48;72.99;101127.50;5032164;28;20437;-59
2022/03/03 02:57:55;;;;;;;14.38;9.50;;;;;;;-1.46;72.66;101126.66;5031391;28;20162;-59
2022/03/03 03:01:00;;;;;;;15.73;9.20;;;;;;;-1.48;73.03;101137.75;5031922;28;20106;-59
2022/03/03 03:04:03;;;;;;;15.73;10.02;;;;;;;-1.46;73.47;101130.94;5031903;28;20104;-59
2022/03/03 03:07:07;;;;;;;16.23;9.60;;;;;;;-1.47;73.31;101124.06;5031057;28;20048;-59
2022/03/03 03:10:10;;;;;;;14.05;9.25;;;;;;;-1.44;73.26;101124.09;5054068;28;20252;-59
2022/03/03 03:13:14;;;;;;;13.50;8.85;;;;;;;-1.57;73.58;101119.72;5055343;28;20128;-59
2022/03/03 03:16:17;;;;;;;13.32;9.50;;;;;;;-1.62;73.56;101111.16;5054642;28;20044;-59
2022/03/03 03:19:21;;;;;;;14.52;10.00;;;;;;;-1.60;72.73;101106.88;5055096;28;20047;-59
2022/03/03 03:22:24;;;;;;;19.25;9.82;;;;;;;-1.61;72.28;101106.03;5053366;28;20110;-59
2022/03/03 03:25:27;;;;;;;14.27;10.05;;;;;;;-1.65;72.03;101107.72;5053395;28;20048;-59
2022/03/03 03:28:31;;;;;;;13.65;8.90;;;;;;;-1.58;72.43;101110.34;5064296;28;20047;-59
2022/03/03 03:31:34;;;;;;;;;;;;;;;-1.60;73.70;101104.31;5053882;28;20055;-59
2022/03/03 03:34:37;;;;;;;11.73;7.80;;;;;;;-1.65;73.45;101099.19;5054991;28;19971;-59
2022/03/03 03:37:41;;;;;;;14.90;10.75;;;;;;;-1.71;72.76;101104.25;5053080;28;20191;-59
2022/03/03 03:40:45;;;;;;;14.48;9.50;;;;;;;-1.79;72.50;101096.50;5054924;28;20048;-59
2022/03/03 03:43:49;;;;;;;14.75;9.65;;;;;;;-1.75;72.02;101103.38;5053856;28;20047;-59
2022/03/03 03:46:52;;;;;;;13.38;9.15;;;;;;;-1.75;72.53;101108.50;5054877;28;20064;-59
2022/03/03 03:49:56;;;;;;;12.73;8.68;;;;;;;-1.81;73.03;101107.59;5054904;28;20110;-59
2022/03/03 03:52:59;;;;;;;14.05;9.93;;;;;;;-1.83;73.71;101112.72;5054743;28;20418;-59
2022/03/03 03:56:03;;;;;;;15.10;9.60;;;;;;;-1.81;73.12;101108.47;5054742;28;20102;-60
2022/03/03 03:59:06;;;;;;;15.20;9.65;;;;;;;-1.82;72.92;101108.44;5054652;28;20128;-59
2022/03/03 04:02:09;;;;;;;16.15;10.73;;;;;;;-1.83;73.80;101109.28;5054088;28;20110;-59
2022/03/03 04:05:14;;;;;;;16.38;10.35;;;;;;;-1.86;73.45;101099.88;5053119;28;20414;-59
2022/03/03 04:08:18;;;;;;;13.07;8.98;;;;;;;-1.82;72.89;101105.88;5041346;28;20048;-59
2022/03/03 04:11:22;;;;;;;17.27;10.35;;;;;;;-1.94;73.99;101106.66;5034814;28;20092;-59
2022/03/03 04:14:26;;;;;;;14.00;10.23;;;;;;;-1.97;73.93;101102.34;4701483;28;10001543;-59
2022/03/03 04:17:30;;;;;;;14.02;10.15;;;;;;;-2.01;74.69;101097.16;5052921;28;20048;-59
2022/03/03 04:20:33;;;;;;;12.48;9.43;;;;;;;-2.03;74.18;101096.31;5075030;28;20142;-59
2022/03/03 04:23:36;;;;;;;14.40;9.73;;;;;;;-1.99;73.98;101103.19;5052776;28;20513;-59
2022/03/03 04:26:40;;;;;;;12.68;9.00;;;;;;;-2.07;74.17;101099.69;5055289;28;20051;-59
2022/03/03 04:29:43;;;;;;;14.23;9.52;;;;;;;-1.99;74.23;101105.75;5033249;28;20446;-59
2022/03/03 04:32:46;;;;;;;;;;;;;;;-2.02;74.18;101096.31;5033490;28;20044;-59
2022/03/03 04:35:50;;;;;;;14.15;9.48;;;;;;;-2.11;73.96;101094.56;5033061;28;20361;-59
2022/03/03 04:38:54;;;;;;;12.43;9.05;;;;;;;-2.22;73.59;101096.16;5031411;28;20107;-60
2022/03/03 04:41:58;;;;;;;15.00;10.18;;;;;;;-2.47;73.87;101089.94;5031572;28;20652;-59
2022/03/03 04:45:05;;;;;;;15.75;10.65;;;;;;;-2.57;73.93;101088.13;5032329;28;20120;-59
2022/03/03 04:48:09;;;;;;;14.07;10.43;;;;;;;-2.54;74.33;101084.75;5032340;28;20086;-59
2022/03/03 04:51:12;;;;;;;16.48;11.13;;;;;;;-2.37;74.22;101081.50;5031213;28;20068;-59
2022/03/03 04:54:17;;;;;;;14.32;10.38;;;;;;;-2.16;73.48;101082.53;5032421;28;20115;-59
2022/03/03 04:57:20;;;;;;;16.00;10.13;;;;;;;-2.31;74.36;101075.56;5034856;28;20051;-59
2022/03/03 05:00:24;;;;;;;13.98;10.10;;;;;;;-2.31;73.47;101069.59;5047710;28;20428;-59
2022/03/03 05:03:28;;;;;;;14.00;10.38;;;;;;;-2.29;73.47;101068.78;5049749;28;20071;-59
2022/03/03 05:06:31;;;;;;;14.43;10.27;;;;;;;-2.24;72.96;101061.97;5048828;28;20460;-59
2022/03/03 05:09:34;;;;;;;14.43;9.85;;;;;;;-2.22;73.05;101060.28;5029762;28;20052;-59
2022/03/03 05:12:39;;;;;;;15.30;10.07;;;;;;;-2.36;73.97;101047.38;5044672;28;20087;-60
2022/03/03 05:15:42;;;;;;;14.18;9.50;;;;;;;-2.28;73.67;101049.13;5049213;28;20072;-59
2022/03/03 05:18:46;;;;;;;13.93;10.57;;;;;;;-2.37;73.45;101044.78;5060217;28;20098;-59
2022/03/03 05:21:49;;;;;;;17.55;11.20;;;;;;;-2.39;74.09;101042.22;5049533;28;20107;-59
2022/03/03 05:24:53;;;;;;;15.73;10.35;;;;;;;-2.40;74.57;101049.88;5049257;28;20110;-60
2022/03/03 05:28:00;;;;;;;17.35;10.75;;;;;;;-2.36;74.57;101051.63;5047927;28;20138;-59
2022/03/03 05:31:04;;;;;;;26.88;17.75;;;;;;;-2.42;74.45;101047.31;5048794;28;20433;-60
2022/03/03 05:34:07;;;;;;;25.08;16.10;;;;;;;-2.48;73.85;101056.66;5048684;28;20305;-60
2022/03/03 05:37:10;;;;;;;15.93;11.15;;;;;;;-2.74;74.54;101049.56;5049063;28;20406;-60
2022/03/03 05:40:14;;;;;;;;;;;;;;;-3.02;75.10;101063.75;5049317;28;20106;-59
2022/03/03 05:43:18;;;;;;;14.30;11.15;;;;;;;-3.02;74.98;101060.34;5049442;28;19919;-59
2022/03/03 05:46:21;;;;;;;17.65;11.55;;;;;;;-3.02;74.95;101068.00;5049042;28;20755;-60
2022/03/03 05:49:26;;;;;;;17.27;11.43;;;;;;;-2.89;74.61;101074.97;5048423;28;20052;-59
2022/03/03 05:52:30;;;;;;;19.35;11.68;;;;;;;-2.70;74.17;101064.09;5039139;28;20060;-60
2022/03/03 05:55:38;;;;;;;;;;;;;;;-2.67;74.20;101074.38;5037826;28;20087;-60
2022/03/03 05:58:44;;;;;;;26.77;14.80;;;;;;;-2.63;74.24;101073.56;5048649;28;20035;-62
2022/03/03 06:01:49;;;;;;;22.05;14.45;;;;;;;-2.61;74.12;101066.75;5048892;28;20052;-59
2022/03/03 06:04:52;;;;;;;21.95;13.98;;;;;;;-2.58;74.04;101066.78;5029932;28;20095;-59
2022/03/03 06:08:05;;;;;;;27.42;16.38;;;;;;;-2.55;73.33;101077.88;5055508;28;20465;-59
2022/03/03 06:11:15;;;;;;;25.80;14.38;;;;;;;-2.54;73.58;101077.06;5048156;28;20526;-59
2022/03/03 06:14:32;;;;;;;18.73;13.15;;;;;;;-2.45;74.02;101077.16;5048801;28;20056;-59
2022/03/03 06:17:36;;;;;;;18.25;12.00;;;;;;;-2.55;73.87;101071.09;5036375;28;20143;-60
2022/03/03 06:20:43;;;;;;;17.08;11.82;;;;;;;-2.68;74.12;101075.22;5027132;28;20410;-59
2022/03/03 06:23:45;;;;;;;19.08;11.10;;;;;;;-2.64;73.87;101082.09;5034580;28;20044;-60
2022/03/03 06:26:49;;;;;;;17.23;11.00;;;;;;;-2.59;74.16;101077.84;5048503;28;20107;-59
2022/03/03 06:29:56;;;;;;;18.95;12.02;;;;;;;-2.55;74.50;101083.91;5058221;28;20541;-60
2022/03/03 06:33:00;;;;;;;17.45;10.88;;;;;;;-2.51;74.20;101092.47;5045670;28;20079;-59
2022/03/03 06:36:04;;;;;;;14.75;10.65;;;;;;;-2.50;74.10;101089.03;5047376;28;20517;-60
2022/03/03 06:39:07;;;;;;;17.10;10.90;;;;;;;-2.49;74.61;101085.63;5046898;28;20060;-59
2022/03/03 06:42:11;;;;;;;17.45;11.75;;;;;;;-2.45;74.15;101093.38;5047459;28;20072;-59
2022/03/03 06:45:17;;;;;;;18.70;13.98;;;;;;;-2.58;75.09;101094.97;5047629;28;20040;-59
2022/03/03 06:48:21;;;;;;;19.63;12.75;;;;;;;-2.62;75.42;101094.88;5047827;28;20244;-59
2022/03/03 06:51:28;;;;;;;13.32;8.57;;;;;;;-2.57;75.57;101094.09;5057885;28;20051;-59
2022/03/03 06:54:33;;;;;;;15.75;10.98;;;;;;;-2.45;75.37;101092.53;5027389;28;20159;-60
2022/03/03 06:57:38;;;;;;;14.80;11.10;;;;;;;-2.42;75.01;101085.72;5027094;28;20410;-60
2022/03/03 07:00:49;;;;;;;17.17;11.50;;;;;;;-2.39;74.72;101084.91;5034184;28;20047;-60
2022/03/03 07:03:52;;;;;;;15.73;10.70;;;;;;;-2.39;75.01;101088.31;5056825;28;20553;-60
2022/03/03 07:06:56;;;;;;;14.52;10.60;;;;;;;-2.45;75.55;101087.41;5046541;28;20066;-60
2022/03/03 07:10:01;;;;;;;13.13;10.15;;;;;;;-2.51;75.29;101079.66;5046770;28;20124;-59
2022/03/03 07:13:04;;;;;;;16.80;11.02;;;;;;;-2.39;74.74;101082.34;5035292;28;20506;-59
2022/03/03 07:16:37;;;;;;;14.77;10.30;;;;;;;-2.28;75.07;101080.72;5047280;28;20060;-59
2022/03/03 07:19:49;;;;;;;13.27;8.23;;;;;;;-2.35;74.73;101074.69;5038493;28;20073;-60
2022/03/03 07:22:58;;;;;;;18.30;10.73;;;;;;;-2.30;74.49;101076.44;5038844;28;20250;-59
2022/03/03 07:26:08;;;;;;;22.20;11.02;;;;;;;-2.13;74.18;101072.31;5068524;28;20047;-59
2022/03/03 07:29:15;;;;;;;19.35;12.02;;;;;;;-2.00;74.05;101060.47;5045275;28;20253;-59
2022/03/03 07:32:20;;;;;;;17.67;10.93;;;;;;;-1.99;74.29;101052.78;5043803;28;20098;-59
2022/03/03 07:35:25;;;;;;;18.02;11.10;;;;;;;-1.88;73.95;101042.63;5044530;28;20052;-59
2022/03/03 07:38:35;;;;;;;18.70;11.25;;;;;;;-1.73;73.74;101052.97;5044337;28;20091;-60
2022/03/03 07:41:41;;;;;;;23.45;11.25;;;;;;;-1.71;74.45;101048.72;5046324;28;20147;-59
2022/03/03 07:44:46;;;;;;;18.88;12.50;;;;;;;-1.59;73.81;101060.75;5045959;28;20075;-60
2022/03/03 07:47:51;;;;;;;16.38;11.20;;;;;;;-1.48;74.08;101065.94;5046757;28;20082;-60
2022/03/03 07:50:58;;;;;;;19.15;12.35;;;;;;;-1.37;74.22;101059.16;5046286;28;20398;-60
2022/03/03 07:54:02;;;;;;;16.48;11.63;;;;;;;-1.38;74.49;101048.88;5057450;28;20048;-60
2022/03/03 07:57:12;;;;;;;15.02;11.55;;;;;;;-1.25;73.75;101043.81;5050166;28;20047;-60
2022/03/03 08:00:16;;;;;;;19.33;11.75;;;;;;;-1.09;73.85;101041.31;5048511;28;20592;-60
2022/03/03 08:03:22;;;;;;;16.27;12.10;;;;;;;-1.05;74.01;101037.94;5033648;28;20533;-59
2022/03/03 08:06:26;;;;;;;16.52;12.05;;;;;;;-1.09;73.53;101037.03;5050693;28;20425;-60
2022/03/03 08:09:31;;;;;;;19.90;12.80;;;;;;;-1.15;73.18;101049.84;5050083;28;20161;-59
2022/03/03 08:12:35;;;;;;;17.25;12.25;;;;;;;-1.02;73.35;101051.63;5049787;28;20035;-60
2022/03/03 08:15:40;;;;;;;19.40;13.00;;;;;;;-0.98;73.71;101045.66;5048840;28;20505;-60
2022/03/03 08:18:43;;;;;;;20.88;13.35;;;;;;;-0.92;73.27;101049.94;5049255;28;20047;-59
2022/03/03 08:21:48;;;;;;;17.73;12.57;;;;;;;-0.80;73.39;101047.41;5030747;28;20053;-59
2022/03/03 08:24:56;;;;;;;14.95;12.30;;;;;;;-0.66;73.93;101049.16;5028816;28;20052;-60
2022/03/03 08:28:01;;;;;;;17.80;12.95;;;;;;;-0.75;73.93;101063.69;5031408;28;20078;-59
2022/03/03 08:31:06;;;;;;;19.65;13.95;;;;;;;-0.50;74.82;101076.59;5031049;28;20100;-59
2022/03/03 08:34:20;;;;;;;16.02;12.65;;;;;;;-0.41;74.58;101070.63;5054814;28;20159;-60
2022/03/03 08:37:37;;;;;;;22.15;13.10;;;;;;;-0.28;74.48;101070.63;5049696;28;20055;-59
2022/03/03 08:40:44;;;;;;;16.95;11.65;;;;;;;-0.12;73.53;101068.06;5049277;28;20052;-59
2022/03/03 08:43:51;;;;;;;20.45;12.95;;;;;;;0.00;73.06;101065.50;5049614;28;20105;-60
2022/03/03 08:46:57;;;;;;;17.15;12.60;;;;;;;0.05;72.80;101061.19;5049038;28;20036;-60
2022/03/03 08:50:08;;;;;;;19.55;13.27;;;;;;;0.18;72.58;101068.03;5048635;28;20048;-59
2022/03/03 08:53:11;;;;;;;19.95;13.43;;;;;;;0.32;71.59;101060.31;5049019;28;20044;-59
2022/03/03 08:56:15;;;;;;;20.45;13.73;;;;;;;0.42;70.81;101058.59;5049125;28;20110;-60
2022/03/03 08:59:18;;;;;;;20.75;13.02;;;;;;;0.55;69.37;101047.41;5048833;28;20051;-60
2022/03/03 09:02:22;;;;;;;21.48;12.77;;;;;;;0.73;68.25;101041.31;5047493;28;20238;-59
2022/03/03 09:05:26;;;;;;;21.25;13.90;;;;;;;0.87;67.08;101049.00;5048717;28;20079;-60
2022/03/03 09:08:29;;;;;;;19.25;13.30;;;;;;;1.00;67.42;101044.66;5049281;28;20047;-60
2022/03/03 09:11:33;;;;;;;19.45;12.80;;;;;;;1.08;66.87;101041.16;5029787;28;20136;-60
2022/03/03 09:14:36;;;;;;;20.17;13.05;;;;;;;1.22;66.66;101033.38;5028941;28;20525;-60
2022/03/03 09:17:40;;;;;;;22.02;13.73;;;;;;;1.29;65.51;101029.91;5041990;28;20102;-60
2022/03/03 09:20:43;;;;;;;;;;;;;;;1.46;66.05;101037.50;5032604;28;20784;-60
2022/03/03 09:23:46;;;;;;;19.38;12.45;;;;;;;1.57;64.77;101033.16;5048035;28;20008;-60
2022/03/03 09:26:51;;;;;;;20.70;14.50;;;;;;;1.58;63.16;101040.00;5036489;28;20513;-59
2022/03/03 09:29:54;;;;;;;17.65;13.60;;;;;;;1.67;62.47;101030.50;5036731;28;20187;-59
2022/03/03 09:32:58;;;;;;;16.92;12.35;;;;;;;1.73;62.55;101023.59;5047007;28;20502;-60
2022/03/03 09:36:01;;;;;;;20.45;13.55;;;;;;;1.91;62.33;101019.97;5047803;28;20090;-60
2022/03/03 09:39:05;;;;;;;16.80;12.90;;;;;;;2.02;61.09;101020.75;5028206;28;20513;-60
2022/03/03 09:42:08;;;;;;;20.85;12.15;;;;;;;2.15;62.47;101020.66;5035753;28;20531;-60
2022/03/03 09:45:11;;;;;;;18.75;12.82;;;;;;;2.23;60.90;101013.66;5047619;28;20068;-60
2022/03/03 09:48:14;;;;;;;18.90;11.80;;;;;;;2.41;60.69;101012.63;5048499;28;20106;-60
2022/03/03 09:51:18;;;;;;;18.00;12.20;;;;;;;2.46;59.42;101001.38;5046604;28;20389;-60
2022/03/03 09:54:21;;;;;;;;;;;;;;;2.61;60.03;101000.34;5048011;28;20410;-60
2022/03/03 09:57:26;;;;;;;22.30;12.35;;;;;;;2.69;60.20;100989.94;5044706;28;19959;-60
2022/03/03 10:00:33;;;;;;;17.15;12.30;;;;;;;2.72;58.72;100987.31;5045390;28;20119;-60
2022/03/03 10:03:37;;;;;;;16.63;12.25;;;;;;;2.86;59.09;100985.41;5046580;28;20039;-61
2022/03/03 10:06:42;;;;;;;19.45;12.60;;;;;;;3.02;59.04;100983.47;5047972;28;20043;-60
2022/03/03 10:10:00;;;;;;;18.88;12.60;;;;;;;3.06;58.76;100979.09;5047226;28;20117;-60
2022/03/03 10:13:04;;;;;;;16.13;11.15;;;;;;;3.21;60.21;100971.13;5046728;28;20118;-60
2022/03/03 10:16:07;;;;;;;19.77;11.55;;;;;;;3.34;59.63;100967.47;5043248;28;20106;-60
2022/03/03 10:19:11;;;;;;;19.80;11.68;;;;;;;3.50;59.09;100962.94;5048751;28;20460;-60
2022/03/03 10:22:15;;;;;;;18.90;12.65;;;;;;;3.56;56.68;100964.56;5048122;28;20051;-60
2022/03/03 10:25:32;;;;;;;24.25;12.48;;;;;;;3.58;56.83;100966.25;5048627;28;20556;-60
2022/03/03 10:28:36;;;;;;;19.65;12.10;;;;;;;3.70;57.06;100967.75;5047930;28;20055;-60
2022/03/03 10:31:57;;;;;;;18.13;11.57;;;;;;;3.68;56.49;100966.97;5036596;28;20075;-60
2022/03/03 10:35:18;;;;;;;15.73;11.55;;;;;;;3.80;54.81;100958.09;5048318;28;20125;-60
2022/03/03 10:38:21;;;;;;;17.90;14.05;;;;;;;3.84;55.29;100952.88;5035531;28;20549;-60
2022/03/03 10:41:35;;;;;;;20.90;12.60;;;;;;;3.90;57.13;100959.69;5048325;28;20091;-60
2022/03/03 10:44:38;;;;;;;17.92;11.93;;;;;;;4.01;57.21;100951.72;5028111;28;20073;-60
2022/03/03 10:47:57;;;;;;;16.92;12.43;;;;;;;4.04;56.92;100955.09;5027776;28;20084;-60
2022/03/03 10:51:02;;;;;;;18.13;12.27;;;;;;;4.32;55.38;100957.16;5028366;28;20052;-60
2022/03/03 10:54:07;;;;;;;18.30;12.02;;;;;;;4.43;56.57;100943.13;5028104;28;20457;-61
2022/03/03 10:57:10;;;;;;;16.58;11.52;;;;;;;4.56;57.39;100950.63;5037889;28;20693;-61
2022/03/03 11:00:19;;;;;;;18.08;11.50;;;;;;;4.73;55.57;100951.16;5028504;28;20076;-60
2022/03/03 11:03:23;;;;;;;16.80;11.93;;;;;;;4.72;55.79;100944.25;5045820;28;20048;-60
2022/03/03 11:06:29;;;;;;;16.90;11.30;;;;;;;4.94;54.71;100938.59;5048206;28;20052;-60
2022/03/03 11:09:35;;;;;;;18.27;10.80;;;;;;;5.05;53.49;100944.41;5048042;28;20765;-60
2022/03/03 11:12:40;;;;;;;14.27;11.02;;;;;;;5.24;52.39;100927.53;5027546;28;20611;-60
2022/03/03 11:15:43;;;;;;;16.83;11.63;;;;;;;5.40;49.96;100922.84;5029257;28;20049;-60
2022/03/03 11:18:47;;;;;;;13.82;10.80;;;;;;;5.61;50.10;100931.81;5049427;28;20095;-59
2022/03/03 11:21:51;;;;;;;16.73;11.13;;;;;;;5.54;50.15;100922.47;5050503;28;20047;-59
2022/03/03 11:24:57;;;;;;;17.35;10.82;;;;;;;5.72;49.60;100914.22;5050025;28;20048;-59
2022/03/03 11:28:05;;;;;;;15.95;10.85;;;;;;;5.80;50.26;100927.84;5051036;28;20095;-59
2022/03/03 11:31:23;;;;;;;15.65;10.60;;;;;;;5.87;49.59;100919.91;5037890;28;20522;-59
2022/03/03 11:34:43;;;;;;;14.07;10.32;;;;;;;5.98;49.48;100915.31;5051838;28;20102;-59
2022/03/03 11:37:46;;;;;;;14.60;10.75;;;;;;;6.07;48.85;100912.47;5054888;28;20139;-59
2022/03/03 11:40:55;;;;;;;15.55;11.25;;;;;;;6.25;46.58;100899.00;5054166;28;20428;-59
2022/03/03 11:44:04;;;;;;;13.52;10.65;;;;;;;6.38;46.67;100898.59;5054565;28;20056;-59
2022/03/03 11:47:32;;;;;;;19.88;10.73;;;;;;;6.42;45.69;100890.69;5054418;28;20051;-59
2022/03/03 11:50:35;;;;;;;14.35;10.30;;;;;;;6.51;46.16;100880.03;5054432;28;20501;-59
2022/03/03 11:53:49;;;;;;;17.23;9.82;;;;;;;6.67;44.05;100877.84;5054470;28;20131;-59
2022/03/03 11:57:04;;;;;;;;;;;;;;;6.82;44.16;100873.06;5054865;28;20563;-59
2022/03/03 12:00:07;;;;;;;14.02;10.10;;;;;;;7.02;42.62;100873.28;5047969;28;20127;-60
2022/03/03 12:03:22;;;;;;;15.55;10.00;;;;;;;7.04;44.31;100868.88;5046475;28;20060;-59
2022/03/03 12:06:40;;;;;;;12.50;10.02;;;;;;;7.32;41.75;100865.38;5061207;28;20055;-60
2022/03/03 12:09:46;;;;;;;14.77;9.82;;;;;;;7.41;42.91;100862.47;5050774;28;20072;-60
2022/03/03 12:12:52;;;;;;;12.77;9.98;;;;;;;7.40;42.05;100860.75;5050011;28;20051;-60
2022/03/03 12:16:19;;;;;;;16.20;9.80;;;;;;;7.43;42.89;100865.84;5049718;28;20144;-62
2022/03/03 12:19:34;;;;;;;15.02;11.50;;;;;;;7.64;41.84;100862.53;5051009;28;20056;-59
2022/03/03 12:23:07;;;;;;;18.73;11.00;;;;;;;7.90;40.10;100858.16;5050267;28;20048;-59
2022/03/03 12:26:11;;;;;;;12.73;9.65;;;;;;;8.00;40.99;100856.06;5050789;28;20055;-60
2022/03/03 12:29:34;;;;;;;;;;;;;;;8.36;40.88;100852.13;5038589;28;20066;-60
2022/03/03 12:32:39;;;;;;;14.35;9.40;;;;;;;8.68;37.88;100846.56;5033541;28;19943;-60
2022/03/03 12:35:43;;;;;;;13.00;9.60;;;;;;;8.82;38.00;100849.50;5036378;28;20076;-60
2022/03/03 12:38:47;;;;;;;14.90;10.30;;;;;;;8.94;39.26;100846.41;5050135;28;20066;-60
2022/03/03 12:41:57;;;;;;;11.63;9.50;;;;;;;9.03;37.96;100834.72;5049597;28;20114;-60
2022/03/03 12:45:07;;;;;;;14.35;10.25;;;;;;;9.19;37.12;100825.38;5050679;28;20052;-60
2022/03/03 12:48:11;;;;;;;15.13;10.00;;;;;;;9.31;36.94;100824.00;5053448;28;20048;-60
2022/03/03 12:51:15;;;;;;;12.35;9.45;;;;;;;9.34;37.40;100817.81;5052466;28;20106;-60
2022/03/03 12:54:19;;;;;;;;;;;;;;;9.47;36.57;100829.44;5053935;28;20114;-60
2022/03/03 12:57:30;;;;;;;12.15;9.13;;;;;;;9.60;36.51;100814.91;5052093;28;20025;-60
2022/03/03 13:00:40;;;;;;;10.93;9.32;;;;;;;9.65;36.00;100812.13;5033614;28;20103;-60
2022/03/03 13:03:43;;;;;;;14.65;9.55;;;;;;;9.80;37.00;100803.63;5048186;28;20110;-60
2022/03/03 13:06:47;;;;;;;12.15;9.10;;;;;;;10.02;36.74;100809.56;5052461;28;20580;-60
2022/03/03 13:09:52;;;;;;;15.20;9.48;;;;;;;10.56;35.30;100807.13;5053428;28;20052;-60
2022/03/03 13:12:57;;;;;;;15.95;10.48;;;;;;;11.15;34.21;100797.25;5052854;28;20098;-60
2022/03/03 13:16:26;;;;;;;14.50;10.15;;;;;;;12.26;32.43;100790.56;5053000;28;20505;-60
2022/03/03 13:19:29;;;;;;;14.05;9.50;;;;;;;13.61;30.35;100781.91;5052257;28;20517;-60
2022/03/03 13:22:36;;;;;;;;;;;;;;;14.96;27.54;100779.47;5053055;28;20128;-60
2022/03/03 13:25:41;;;;;;;12.45;9.80;;;;;;;17.36;24.72;100772.00;5052641;28;19925;-60
2022/03/03 13:28:45;;;;;;;13.13;9.40;;;;;;;18.98;22.82;100765.25;5051480;28;20079;-58
2022/03/03 13:31:49;;;;;;;14.35;10.15;;;;;;;18.36;22.78;100770.28;5052906;28;20052;-60
2022/03/03 13:34:55;;;;;;;15.73;10.80;;;;;;;18.50;21.59;100763.03;5049907;28;20484;-60
2022/03/03 13:38:04;;;;;;;11.32;9.07;;;;;;;17.18;23.09;100771.59;5042974;28;20051;-58
2022/03/03 13:41:28;;;;;;;13.38;9.77;;;;;;;15.10;24.70;100775.94;5054259;28;20076;-58
2022/03/03 13:44:32;;;;;;;11.23;9.80;;;;;;;14.79;26.13;100767.41;5031889;28;20052;-60
2022/03/03 13:47:40;;;;;;;13.88;9.70;;;;;;;14.44;27.69;100769.69;5032414;28;20177;-60
2022/03/03 13:50:43;;;;;;;13.95;8.85;;;;;;;13.30;26.65;100759.28;5032450;28;20060;-60
2022/03/03 13:54:02;;;;;;;12.07;9.55;;;;;;;13.16;27.26;100758.28;5031847;28;20060;-60
2022/03/03 13:57:05;;;;;;;12.85;8.27;;;;;;;12.22;28.60;100756.69;5036923;28;20460;-60
2022/03/03 14:00:23;;;;;;;9.40;7.70;;;;;;;11.91;28.43;100750.53;5051886;28;20132;-60
2022/03/03 14:03:42;;;;;;;14.73;8.25;;;;;;;11.94;28.13;100753.00;5051497;28;20047;-58
2022/03/03 14:06:46;;;;;;;10.20;8.00;;;;;;;11.68;29.01;100756.13;5052009;28;20048;-60
2022/03/03 14:10:00;;;;;;;11.93;7.50;;;;;;;11.65;28.71;100762.38;5051667;28;20048;-60
2022/03/03 14:13:05;;;;;;;9.82;7.38;;;;;;;11.40;29.25;100753.19;5052277;28;20155;-60
2022/03/03 14:16:08;;;;;;;10.23;7.78;;;;;;;11.60;28.46;100749.53;5051129;28;20047;-60